Vining, Iowa
Current Conditions -  °F | °C
As of 3:35 PM on Saturday 25 Oct 2014 (Local Time) from KVTI Reporting Station
Clear Clear  
Wind Chill: 70°   Ceiling: Unl
Heat Index: 70°   Visibility: 10mi
Dew Point: 34°   Wind: 10mph
Humidity: 27%   Direction: 320°NW
Pressure: 30.04"   Gusts: NA
Location:  41.99°N, 92.38°W
Report Text: KVTI 252035Z AUTO 32009KT 10SM CLR 21/01 A3004 RMK AO2 T02130013
Loading
Personal Weather Stations






























Interactive Weather Map
Tropical Storm Tracking
New forecast layout! Learn more

10-Day Weather Forecast

Advertisements
Track Severe Weather on mobile